Terminal Aerodrome Forecast
Issued by NWS Des Moines, IA

Home | Current Version | Previous Version | Text Only | Print | Product List | Glossary On
Versions: 1 2 3 4 5 6 7 8 9 10 11 12 13 14 15 16 17 18 19 20 21 22 23 24 25 26 27 28 29 30 31 32 33 34 35 36 37 38 39 40 41 42 43 44 45 46 47 48 49 50
000
FTUS43 KDMX 212337
TAFDSM
TAF
KDSM 212337Z 2200/2224 18011KT P6SM OVC013
     FM220300 16014KT 2SM -DZ BR OVC008
     FM221000 13014KT 1SM -RA BR OVC005
     FM221800 13010KT 3SM -RA BR OVC008
     FM222000 17011KT 4SM -DZ BR OVC012=

USA.gov is the U.S. government's official web portal to all federal, state and local government web resources and services.